sensor_id;sensor_type;location;lat;lon;timestamp;temperature;humidity
31309;DHT22;17936;52.446;10.840;2022-07-10T00:02:02;13.60;75.20
31309;DHT22;17936;52.446;10.840;2022-07-10T00:04:28;13.70;72.20
31309;DHT22;17936;52.446;10.840;2022-07-10T00:06:53;13.70;74.60
31309;DHT22;17936;52.446;10.840;2022-07-10T00:09:21;13.70;79.80
31309;DHT22;17936;52.446;10.840;2022-07-10T00:11:47;13.70;77.50
31309;DHT22;17936;52.446;10.840;2022-07-10T00:14:13;13.70;79.90
31309;DHT22;17936;52.446;10.840;2022-07-10T00:16:38;13.60;88.60
31309;DHT22;17936;52.446;10.840;2022-07-10T00:19:04;13.60;89.10
31309;DHT22;17936;52.446;10.840;2022-07-10T00:21:29;13.60;91.80
31309;DHT22;17936;52.446;10.840;2022-07-10T00:23:55;13.70;93.00
31309;DHT22;17936;52.446;10.840;2022-07-10T00:26:20;13.70;94.20
31309;DHT22;17936;52.446;10.840;2022-07-10T00:28:46;13.70;93.60
31309;DHT22;17936;52.446;10.840;2022-07-10T00:31:11;13.80;93.10
31309;DHT22;17936;52.446;10.840;2022-07-10T00:33:37;13.70;93.80
31309;DHT22;17936;52.446;10.840;2022-07-10T00:36:04;13.70;92.90
31309;DHT22;17936;52.446;10.840;2022-07-10T00:38:30;13.70;93.60
31309;DHT22;17936;52.446;10.840;2022-07-10T00:40:56;13.70;94.30
31309;DHT22;17936;52.446;10.840;2022-07-10T00:43:21;13.60;95.50
31309;DHT22;17936;52.446;10.840;2022-07-10T00:45:48;13.60;97.40
31309;DHT22;17936;52.446;10.840;2022-07-10T00:48:14;13.50;96.90
31309;DHT22;17936;52.446;10.840;2022-07-10T00:50:41;13.40;99.90
31309;DHT22;17936;52.446;10.840;2022-07-10T00:53:07;13.40;99.90
31309;DHT22;17936;52.446;10.840;2022-07-10T00:55:35;13.40;99.90
31309;DHT22;17936;52.446;10.840;2022-07-10T00:58:01;13.40;99.90
31309;DHT22;17936;52.446;10.840;2022-07-10T01:00:28;13.40;99.90
31309;DHT22;17936;52.446;10.840;2022-07-10T01:02:53;13.30;99.90
31309;DHT22;17936;52.446;10.840;2022-07-10T01:05:19;13.30;99.90
31309;DHT22;17936;52.446;10.840;2022-07-10T01:07:44;13.30;99.90
31309;DHT22;17936;52.446;10.840;2022-07-10T01:10:10;13.30;99.90
31309;DHT22;17936;52.446;10.840;2022-07-10T01:12:36;13.30;99.90
31309;DHT22;17936;52.446;10.840;2022-07-10T01:15:03;13.30;99.90
31309;DHT22;17936;52.446;10.840;2022-07-10T01:17:29;13.30;99.90
31309;DHT22;17936;52.446;10.840;2022-07-10T01:19:56;13.30;99.90
31309;DHT22;17936;52.446;10.840;2022-07-10T01:22:21;13.20;99.90
31309;DHT22;17936;52.446;10.840;2022-07-10T01:24:47;13.10;99.90
31309;DHT22;17936;52.446;10.840;2022-07-10T01:27:12;13.10;99.90
31309;DHT22;17936;52.446;10.840;2022-07-10T01:29:38;13.10;99.90
31309;DHT22;17936;52.446;10.840;2022-07-10T01:32:04;12.90;99.90
31309;DHT22;17936;52.446;10.840;2022-07-10T01:34:30;12.90;99.90
31309;DHT22;17936;52.446;10.840;2022-07-10T01:36:55;12.90;99.90
31309;DHT22;17936;52.446;10.840;2022-07-10T01:39:21;12.90;99.90
31309;DHT22;17936;52.446;10.840;2022-07-10T01:41:47;12.80;99.90
31309;DHT22;17936;52.446;10.840;2022-07-10T01:44:13;12.90;99.90
31309;DHT22;17936;52.446;10.840;2022-07-10T01:46:47;12.90;99.90
31309;DHT22;17936;52.446;10.840;2022-07-10T01:49:14;12.80;99.90
31309;DHT22;17936;52.446;10.840;2022-07-10T01:51:40;12.80;99.90
31309;DHT22;17936;52.446;10.840;2022-07-10T01:54:06;12.80;99.90
31309;DHT22;17936;52.446;10.840;2022-07-10T01:56:31;12.90;99.90
31309;DHT22;17936;52.446;10.840;2022-07-10T01:58:57;12.90;99.90
31309;DHT22;17936;52.446;10.840;2022-07-10T02:01:25;12.80;99.90
31309;DHT22;17936;52.446;10.840;2022-07-10T02:03:50;12.80;99.90
31309;DHT22;17936;52.446;10.840;2022-07-10T02:06:34;12.80;99.90
31309;DHT22;17936;52.446;10.840;2022-07-10T02:09:00;12.80;99.90
31309;DHT22;17936;52.446;10.840;2022-07-10T02:11:25;12.80;99.90
31309;DHT22;17936;52.446;10.840;2022-07-10T02:13:51;12.90;99.90
31309;DHT22;17936;52.446;10.840;2022-07-10T02:16:16;12.90;99.90
31309;DHT22;17936;52.446;10.840;2022-07-10T02:18:42;12.80;99.90
31309;DHT22;17936;52.446;10.840;2022-07-10T02:21:07;12.80;99.90
31309;DHT22;17936;52.446;10.840;2022-07-10T02:23:34;12.70;99.90
31309;DHT22;17936;52.446;10.840;2022-07-10T02:25:59;12.70;99.90
31309;DHT22;17936;52.446;10.840;2022-07-10T02:28:25;12.70;99.90
31309;DHT22;17936;52.446;10.840;2022-07-10T02:30:50;12.70;99.90
31309;DHT22;17936;52.446;10.840;2022-07-10T02:33:16;12.70;99.90
31309;DHT22;17936;52.446;10.840;2022-07-10T02:35:41;12.70;99.90
31309;DHT22;17936;52.446;10.840;2022-07-10T02:38:07;12.70;99.90
31309;DHT22;17936;52.446;10.840;2022-07-10T02:40:32;12.80;99.90
31309;DHT22;17936;52.446;10.840;2022-07-10T02:42:58;12.80;99.90
31309;DHT22;17936;52.446;10.840;2022-07-10T02:45:23;12.80;99.90
31309;DHT22;17936;52.446;10.840;2022-07-10T02:47:49;12.70;99.90
31309;DHT22;17936;52.446;10.840;2022-07-10T02:50:14;12.70;99.90
31309;DHT22;17936;52.446;10.840;2022-07-10T02:52:40;12.70;99.90
31309;DHT22;17936;52.446;10.840;2022-07-10T02:55:06;12.80;99.90
31309;DHT22;17936;52.446;10.840;2022-07-10T02:57:32;12.70;99.90
31309;DHT22;17936;52.446;10.840;2022-07-10T02:59:57;12.80;99.90
31309;DHT22;17936;52.446;10.840;2022-07-10T03:02:23;12.70;99.90
31309;DHT22;17936;52.446;10.840;2022-07-10T03:04:48;12.80;99.90
31309;DHT22;17936;52.446;10.840;2022-07-10T03:07:14;12.80;99.90
31309;DHT22;17936;52.446;10.840;2022-07-10T03:09:39;12.80;99.90
31309;DHT22;17936;52.446;10.840;2022-07-10T03:12:05;12.70;99.90
31309;DHT22;17936;52.446;10.840;2022-07-10T03:14:31;12.70;99.90
31309;DHT22;17936;52.446;10.840;2022-07-10T03:16:56;12.80;99.90
31309;DHT22;17936;52.446;10.840;2022-07-10T03:19:22;12.70;99.90
31309;DHT22;17936;52.446;10.840;2022-07-10T03:21:47;12.70;99.90
31309;DHT22;17936;52.446;10.840;2022-07-10T03:24:13;12.70;99.90
31309;DHT22;17936;52.446;10.840;2022-07-10T03:26:38;12.60;99.90
31309;DHT22;17936;52.446;10.840;2022-07-10T03:29:04;12.60;99.90
31309;DHT22;17936;52.446;10.840;2022-07-10T03:31:29;12.60;99.90
31309;DHT22;17936;52.446;10.840;2022-07-10T03:33:55;12.50;99.90
31309;DHT22;17936;52.446;10.840;2022-07-10T03:36:20;12.60;99.90
31309;DHT22;17936;52.446;10.840;2022-07-10T03:38:46;12.60;99.90
31309;DHT22;17936;52.446;10.840;2022-07-10T03:41:12;12.70;99.90
31309;DHT22;17936;52.446;10.840;2022-07-10T03:43:38;12.60;99.90
31309;DHT22;17936;52.446;10.840;2022-07-10T03:46:03;12.60;99.90
31309;DHT22;17936;52.446;10.840;2022-07-10T03:48:29;12.50;99.90
31309;DHT22;17936;52.446;10.840;2022-07-10T03:50:55;12.60;99.90
31309;DHT22;17936;52.446;10.840;2022-07-10T03:53:20;12.60;99.90
31309;DHT22;17936;52.446;10.840;2022-07-10T03:55:46;12.50;99.90
31309;DHT22;17936;52.446;10.840;2022-07-10T03:58:11;12.50;99.90
31309;DHT22;17936;52.446;10.840;2022-07-10T04:00:37;12.50;99.90
31309;DHT22;17936;52.446;10.840;2022-07-10T04:03:06;12.50;99.90
31309;DHT22;17936;52.446;10.840;2022-07-10T04:05:33;12.60;99.90
31309;DHT22;17936;52.446;10.840;2022-07-10T04:08:00;12.50;99.90
31309;DHT22;17936;52.446;10.840;2022-07-10T04:10:26;12.50;99.90
31309;DHT22;17936;52.446;10.840;2022-07-10T04:12:53;12.60;99.90
31309;DHT22;17936;52.446;10.840;2022-07-10T04:15:19;12.40;99.90
31309;DHT22;17936;52.446;10.840;2022-07-10T04:17:45;12.50;99.90
31309;DHT22;17936;52.446;10.840;2022-07-10T04:20:11;12.60;99.90
31309;DHT22;17936;52.446;10.840;2022-07-10T04:22:37;12.60;99.90
31309;DHT22;17936;52.446;10.840;2022-07-10T04:25:03;12.50;99.90
31309;DHT22;17936;52.446;10.840;2022-07-10T04:27:29;12.50;99.90
31309;DHT22;17936;52.446;10.840;2022-07-10T04:29:54;12.60;99.90
31309;DHT22;17936;52.446;10.840;2022-07-10T04:32:20;12.60;99.90
31309;DHT22;17936;52.446;10.840;2022-07-10T04:34:45;12.60;99.90
31309;DHT22;17936;52.446;10.840;2022-07-10T04:37:11;12.70;99.90
31309;DHT22;17936;52.446;10.840;2022-07-10T04:39:37;12.60;99.90
31309;DHT22;17936;52.446;10.840;2022-07-10T04:42:05;12.60;99.90
31309;DHT22;17936;52.446;10.840;2022-07-10T04:44:30;12.60;99.90
31309;DHT22;17936;52.446;10.840;2022-07-10T04:46:56;12.70;99.90
31309;DHT22;17936;52.446;10.840;2022-07-10T04:49:22;12.70;99.90
31309;DHT22;17936;52.446;10.840;2022-07-10T04:51:47;12.60;99.90
31309;DHT22;17936;52.446;10.840;2022-07-10T04:54:13;12.70;99.90
31309;DHT22;17936;52.446;10.840;2022-07-10T04:56:38;12.70;99.90
31309;DHT22;17936;52.446;10.840;2022-07-10T04:59:04;12.70;99.90
31309;DHT22;17936;52.446;10.840;2022-07-10T05:01:29;12.70;99.90
31309;DHT22;17936;52.446;10.840;2022-07-10T05:03:55;12.70;99.90
31309;DHT22;17936;52.446;10.840;2022-07-10T05:06:20;12.80;99.90
31309;DHT22;17936;52.446;10.840;2022-07-10T05:08:46;12.80;99.90
31309;DHT22;17936;52.446;10.840;2022-07-10T05:11:11;12.80;99.90
31309;DHT22;17936;52.446;10.840;2022-07-10T05:13:37;12.80;99.90
31309;DHT22;17936;52.446;10.840;2022-07-10T05:16:04;12.80;99.90
31309;DHT22;17936;52.446;10.840;2022-07-10T05:18:30;12.80;99.90
31309;DHT22;17936;52.446;10.840;2022-07-10T05:20:55;12.80;99.90
31309;DHT22;17936;52.446;10.840;2022-07-10T05:23:21;12.90;99.90
31309;DHT22;17936;52.446;10.840;2022-07-10T05:25:46;12.90;99.90
31309;DHT22;17936;52.446;10.840;2022-07-10T05:28:12;13.00;99.90
31309;DHT22;17936;52.446;10.840;2022-07-10T05:30:41;13.00;99.90
31309;DHT22;17936;52.446;10.840;2022-07-10T05:33:07;13.00;99.90
31309;DHT22;17936;52.446;10.840;2022-07-10T05:35:33;13.10;99.90
31309;DHT22;17936;52.446;10.840;2022-07-10T05:37:58;13.10;99.90
31309;DHT22;17936;52.446;10.840;2022-07-10T05:40:24;13.30;99.90
31309;DHT22;17936;52.446;10.840;2022-07-10T05:42:50;13.40;99.90
31309;DHT22;17936;52.446;10.840;2022-07-10T05:45:15;13.40;99.90
31309;DHT22;17936;52.446;10.840;2022-07-10T05:47:41;13.20;99.90
31309;DHT22;17936;52.446;10.840;2022-07-10T05:50:07;13.30;99.90
31309;DHT22;17936;52.446;10.840;2022-07-10T05:52:33;13.30;99.90
31309;DHT22;17936;52.446;10.840;2022-07-10T05:54:59;13.40;99.90
31309;DHT22;17936;52.446;10.840;2022-07-10T05:57:25;13.30;99.90
31309;DHT22;17936;52.446;10.840;2022-07-10T05:59:51;13.30;99.90
31309;DHT22;17936;52.446;10.840;2022-07-10T06:02:16;13.40;99.90
31309;DHT22;17936;52.446;10.840;2022-07-10T06:04:42;13.40;99.90
31309;DHT22;17936;52.446;10.840;2022-07-10T06:07:08;13.50;99.90
31309;DHT22;17936;52.446;10.840;2022-07-10T06:09:34;13.50;99.90
31309;DHT22;17936;52.446;10.840;2022-07-10T06:11:59;13.60;99.90
31309;DHT22;17936;52.446;10.840;2022-07-10T06:14:25;13.60;99.90
31309;DHT22;17936;52.446;10.840;2022-07-10T06:16:51;13.60;99.90
31309;DHT22;17936;52.446;10.840;2022-07-10T06:19:16;13.70;99.90
31309;DHT22;17936;52.446;10.840;2022-07-10T06:21:42;13.70;99.90
31309;DHT22;17936;52.446;10.840;2022-07-10T06:24:08;13.80;99.90
31309;DHT22;17936;52.446;10.840;2022-07-10T06:26:34;13.90;99.90
31309;DHT22;17936;52.446;10.840;2022-07-10T06:29:00;13.90;99.90
31309;DHT22;17936;52.446;10.840;2022-07-10T06:31:25;14.00;99.90
31309;DHT22;17936;52.446;10.840;2022-07-10T06:33:51;14.10;99.90
31309;DHT22;17936;52.446;10.840;2022-07-10T06:36:16;14.10;99.90
31309;DHT22;17936;52.446;10.840;2022-07-10T06:38:42;14.10;99.90
31309;DHT22;17936;52.446;10.840;2022-07-10T06:41:07;14.20;99.90
31309;DHT22;17936;52.446;10.840;2022-07-10T06:43:33;14.50;99.90
31309;DHT22;17936;52.446;10.840;2022-07-10T06:45:59;14.30;98.50
31309;DHT22;17936;52.446;10.840;2022-07-10T06:48:26;14.50;97.70
31309;DHT22;17936;52.446;10.840;2022-07-10T06:50:52;14.50;95.10
31309;DHT22;17936;52.446;10.840;2022-07-10T06:53:18;14.60;95.50
31309;DHT22;17936;52.446;10.840;2022-07-10T06:55:50;14.80;95.30
31309;DHT22;17936;52.446;10.840;2022-07-10T06:58:15;14.90;84.70
31309;DHT22;17936;52.446;10.840;2022-07-10T07:00:41;14.90;92.20
31309;DHT22;17936;52.446;10.840;2022-07-10T07:03:06;14.70;88.30
31309;DHT22;17936;52.446;10.840;2022-07-10T07:05:32;14.50;91.90
31309;DHT22;17936;52.446;10.840;2022-07-10T07:07:58;14.60;90.70
31309;DHT22;17936;52.446;10.840;2022-07-10T07:10:23;14.60;91.60
31309;DHT22;17936;52.446;10.840;2022-07-10T07:12:49;14.70;90.10
31309;DHT22;17936;52.446;10.840;2022-07-10T07:15:15;14.80;66.90
31309;DHT22;17936;52.446;10.840;2022-07-10T07:17:42;14.90;63.80
31309;DHT22;17936;52.446;10.840;2022-07-10T07:20:34;14.90;60.10
31309;DHT22;17936;52.446;10.840;2022-07-10T07:23:19;15.20;55.60
31309;DHT22;17936;52.446;10.840;2022-07-10T07:25:44;15.50;44.20
31309;DHT22;17936;52.446;10.840;2022-07-10T07:28:13;16.10;8.30
31309;DHT22;17936;52.446;10.840;2022-07-10T07:30:43;17.00;1.00
31309;DHT22;17936;52.446;10.840;2022-07-10T07:33:09;17.30;1.00
31309;DHT22;17936;52.446;10.840;2022-07-10T07:35:34;17.30;1.00
31309;DHT22;17936;52.446;10.840;2022-07-10T07:38:02;16.80;99.90
31309;DHT22;17936;52.446;10.840;2022-07-10T07:40:28;16.70;99.90
31309;DHT22;17936;52.446;10.840;2022-07-10T07:42:55;17.20;99.90
31309;DHT22;17936;52.446;10.840;2022-07-10T07:45:21;16.80;1.00
31309;DHT22;17936;52.446;10.840;2022-07-10T07:47:49;16.10;1.00
31309;DHT22;17936;52.446;10.840;2022-07-10T07:50:18;15.80;1.00
31309;DHT22;17936;52.446;10.840;2022-07-10T07:52:45;16.10;1.00
31309;DHT22;17936;52.446;10.840;2022-07-10T07:55:12;16.10;1.00
31309;DHT22;17936;52.446;10.840;2022-07-10T07:57:38;15.90;1.00
31309;DHT22;17936;52.446;10.840;2022-07-10T08:00:05;15.70;1.00
31309;DHT22;17936;52.446;10.840;2022-07-10T08:02:32;15.60;1.60
31309;DHT22;17936;52.446;10.840;2022-07-10T08:04:57;15.50;13.80
31309;DHT22;17936;52.446;10.840;2022-07-10T08:07:23;15.50;33.50
31309;DHT22;17936;52.446;10.840;2022-07-10T08:09:57;15.40;51.40
31309;DHT22;17936;52.446;10.840;2022-07-10T08:12:23;15.40;33.30
31309;DHT22;17936;52.446;10.840;2022-07-10T08:14:48;15.50;15.60
31309;DHT22;17936;52.446;10.840;2022-07-10T08:17:14;15.70;6.60
31309;DHT22;17936;52.446;10.840;2022-07-10T08:19:39;15.50;1.00
31309;DHT22;17936;52.446;10.840;2022-07-10T08:22:05;15.60;1.00
31309;DHT22;17936;52.446;10.840;2022-07-10T08:24:30;15.80;1.00
31309;DHT22;17936;52.446;10.840;2022-07-10T08:26:56;15.80;1.00
31309;DHT22;17936;52.446;10.840;2022-07-10T08:29:21;16.20;1.00
31309;DHT22;17936;52.446;10.840;2022-07-10T08:31:46;16.60;1.00
31309;DHT22;17936;52.446;10.840;2022-07-10T08:34:12;16.30;99.90
31309;DHT22;17936;52.446;10.840;2022-07-10T08:36:37;16.40;99.90
31309;DHT22;17936;52.446;10.840;2022-07-10T08:39:03;17.80;99.90
31309;DHT22;17936;52.446;10.840;2022-07-10T08:41:29;18.20;1.00
31309;DHT22;17936;52.446;10.840;2022-07-10T08:43:56;17.60;99.90
31309;DHT22;17936;52.446;10.840;2022-07-10T08:46:22;17.00;84.60
31309;DHT22;17936;52.446;10.840;2022-07-10T08:48:49;17.10;92.50
31309;DHT22;17936;52.446;10.840;2022-07-10T08:51:32;17.20;99.90
31309;DHT22;17936;52.446;10.840;2022-07-10T08:54:01;17.20;99.90
31309;DHT22;17936;52.446;10.840;2022-07-10T08:56:26;17.00;1.00
31309;DHT22;17936;52.446;10.840;2022-07-10T08:58:52;17.10;88.10
31309;DHT22;17936;52.446;10.840;2022-07-10T09:01:19;17.20;99.90
31309;DHT22;17936;52.446;10.840;2022-07-10T09:03:48;17.20;99.90
31309;DHT22;17936;52.446;10.840;2022-07-10T09:06:14;17.80;99.90
31309;DHT22;17936;52.446;10.840;2022-07-10T09:09:01;18.10;1.00
31309;DHT22;17936;52.446;10.840;2022-07-10T09:11:28;17.80;14.20
31309;DHT22;17936;52.446;10.840;2022-07-10T09:13:59;17.40;99.90
31309;DHT22;17936;52.446;10.840;2022-07-10T09:16:27;18.40;25.20
31309;DHT22;17936;52.446;10.840;2022-07-10T09:18:53;18.90;63.60
31309;DHT22;17936;52.446;10.840;2022-07-10T09:21:19;18.90;66.60
31309;DHT22;17936;52.446;10.840;2022-07-10T09:23:45;18.00;99.90
31309;DHT22;17936;52.446;10.840;2022-07-10T09:26:10;17.50;99.90
31309;DHT22;17936;52.446;10.840;2022-07-10T09:28:36;17.60;99.90
31309;DHT22;17936;52.446;10.840;2022-07-10T09:31:01;17.50;31.00
31309;DHT22;17936;52.446;10.840;2022-07-10T09:33:30;18.80;99.90
31309;DHT22;17936;52.446;10.840;2022-07-10T09:36:09;18.50;99.90
31309;DHT22;17936;52.446;10.840;2022-07-10T09:41:15;20.10;1.00
31309;DHT22;17936;52.446;10.840;2022-07-10T09:43:45;18.80;1.00
31309;DHT22;17936;52.446;10.840;2022-07-10T09:46:11;17.90;1.00
31309;DHT22;17936;52.446;10.840;2022-07-10T09:48:37;17.40;1.00
31309;DHT22;17936;52.446;10.840;2022-07-10T09:51:03;17.20;89.50
31309;DHT22;17936;52.446;10.840;2022-07-10T09:53:32;17.40;99.90
31309;DHT22;17936;52.446;10.840;2022-07-10T09:56:01;18.00;99.90
31309;DHT22;17936;52.446;10.840;2022-07-10T09:58:30;19.20;99.90
31309;DHT22;17936;52.446;10.840;2022-07-10T10:00:57;19.10;99.90
31309;DHT22;17936;52.446;10.840;2022-07-10T10:03:24;20.20;99.90
31309;DHT22;17936;52.446;10.840;2022-07-10T10:05:55;19.50;99.90
31309;DHT22;17936;52.446;10.840;2022-07-10T10:08:25;18.40;99.90
31309;DHT22;17936;52.446;10.840;2022-07-10T10:10:53;18.20;88.40
31309;DHT22;17936;52.446;10.840;2022-07-10T10:13:26;18.00;99.90
31309;DHT22;17936;52.446;10.840;2022-07-10T10:15:56;17.80;99.90
31309;DHT22;17936;52.446;10.840;2022-07-10T10:18:23;17.90;99.90
31309;DHT22;17936;52.446;10.840;2022-07-10T10:20:51;19.00;1.00
31309;DHT22;17936;52.446;10.840;2022-07-10T10:23:18;20.10;99.90
31309;DHT22;17936;52.446;10.840;2022-07-10T10:25:47;20.90;1.00
31309;DHT22;17936;52.446;10.840;2022-07-10T10:28:13;20.60;1.00
31309;DHT22;17936;52.446;10.840;2022-07-10T10:30:41;20.00;99.90
31309;DHT22;17936;52.446;10.840;2022-07-10T10:36:00;19.40;29.70
31309;DHT22;17936;52.446;10.840;2022-07-10T10:41:28;19.90;62.40
31309;DHT22;17936;52.446;10.840;2022-07-10T10:46:54;21.00;99.90
31309;DHT22;17936;52.446;10.840;2022-07-10T10:49:26;22.40;1.00
31309;DHT22;17936;52.446;10.840;2022-07-10T10:52:10;21.40;99.90
31309;DHT22;17936;52.446;10.840;2022-07-10T11:00:06;20.10;99.90
31309;DHT22;17936;52.446;10.840;2022-07-10T11:02:37;19.50;99.90
31309;DHT22;17936;52.446;10.840;2022-07-10T11:08:00;19.90;99.90
31309;DHT22;17936;52.446;10.840;2022-07-10T11:10:30;20.80;7.60
31309;DHT22;17936;52.446;10.840;2022-07-10T11:15:26;22.10;99.90
31309;DHT22;17936;52.446;10.840;2022-07-10T11:17:56;22.30;99.90
31309;DHT22;17936;52.446;10.840;2022-07-10T11:20:21;21.60;99.90
31309;DHT22;17936;52.446;10.840;2022-07-10T11:25:54;20.20;99.90
31309;DHT22;17936;52.446;10.840;2022-07-10T11:31:04;21.30;99.90
31309;DHT22;17936;52.446;10.840;2022-07-10T11:33:41;20.70;99.90
31309;DHT22;17936;52.446;10.840;2022-07-10T11:36:16;20.40;99.90
31309;DHT22;17936;52.446;10.840;2022-07-10T11:38:43;20.10;99.90
31309;DHT22;17936;52.446;10.840;2022-07-10T11:41:19;19.40;99.90
31309;DHT22;17936;52.446;10.840;2022-07-10T11:43:55;19.10;1.00
31309;DHT22;17936;52.446;10.840;2022-07-10T11:46:22;19.10;99.90
31309;DHT22;17936;52.446;10.840;2022-07-10T11:48:49;19.90;37.00
31309;DHT22;17936;52.446;10.840;2022-07-10T11:54:03;21.30;99.90
31309;DHT22;17936;52.446;10.840;2022-07-10T11:56:33;21.80;99.90
31309;DHT22;17936;52.446;10.840;2022-07-10T11:59:04;21.10;99.90
31309;DHT22;17936;52.446;10.840;2022-07-10T12:01:31;20.80;99.90
31309;DHT22;17936;52.446;10.840;2022-07-10T12:04:05;20.40;99.90
31309;DHT22;17936;52.446;10.840;2022-07-10T12:06:33;21.20;99.90
31309;DHT22;17936;52.446;10.840;2022-07-10T12:09:13;21.80;99.90
31309;DHT22;17936;52.446;10.840;2022-07-10T12:11:40;22.00;99.90
31309;DHT22;17936;52.446;10.840;2022-07-10T12:14:19;21.70;98.70
31309;DHT22;17936;52.446;10.840;2022-07-10T12:16:49;20.80;99.90
31309;DHT22;17936;52.446;10.840;2022-07-10T12:19:18;20.40;99.90
31309;DHT22;17936;52.446;10.840;2022-07-10T12:21:46;20.00;99.90
31309;DHT22;17936;52.446;10.840;2022-07-10T12:24:12;19.90;99.90
31309;DHT22;17936;52.446;10.840;2022-07-10T12:26:40;20.70;99.90
31309;DHT22;17936;52.446;10.840;2022-07-10T12:29:19;20.90;99.90
31309;DHT22;17936;52.446;10.840;2022-07-10T12:31:46;20.60;99.90
31309;DHT22;17936;52.446;10.840;2022-07-10T12:34:12;20.60;99.90
31309;DHT22;17936;52.446;10.840;2022-07-10T12:36:42;20.90;99.90
31309;DHT22;17936;52.446;10.840;2022-07-10T12:39:09;21.30;99.90
31309;DHT22;17936;52.446;10.840;2022-07-10T12:41:35;21.70;99.90
31309;DHT22;17936;52.446;10.840;2022-07-10T12:44:00;21.20;99.90
31309;DHT22;17936;52.446;10.840;2022-07-10T12:46:26;20.40;99.90
31309;DHT22;17936;52.446;10.840;2022-07-10T12:49:07;20.30;99.90
31309;DHT22;17936;52.446;10.840;2022-07-10T12:51:45;20.20;99.90
31309;DHT22;17936;52.446;10.840;2022-07-10T12:54:33;19.90;99.90
31309;DHT22;17936;52.446;10.840;2022-07-10T12:56:59;19.70;99.90
31309;DHT22;17936;52.446;10.840;2022-07-10T12:59:28;19.50;99.90
31309;DHT22;17936;52.446;10.840;2022-07-10T13:01:56;20.70;99.90
31309;DHT22;17936;52.446;10.840;2022-07-10T13:04:24;21.50;99.90
31309;DHT22;17936;52.446;10.840;2022-07-10T13:06:52;21.80;99.90
31309;DHT22;17936;52.446;10.840;2022-07-10T13:09:19;21.60;99.90
31309;DHT22;17936;52.446;10.840;2022-07-10T13:11:46;21.80;99.90
31309;DHT22;17936;52.446;10.840;2022-07-10T13:14:11;21.80;99.90
31309;DHT22;17936;52.446;10.840;2022-07-10T13:16:37;22.30;99.90
31309;DHT22;17936;52.446;10.840;2022-07-10T13:19:03;21.40;99.90
31309;DHT22;17936;52.446;10.840;2022-07-10T13:21:28;20.40;99.90
31309;DHT22;17936;52.446;10.840;2022-07-10T13:23:54;20.40;99.90
31309;DHT22;17936;52.446;10.840;2022-07-10T13:26:20;20.70;99.90
31309;DHT22;17936;52.446;10.840;2022-07-10T13:28:45;21.70;99.90
31309;DHT22;17936;52.446;10.840;2022-07-10T13:31:11;21.50;99.90
31309;DHT22;17936;52.446;10.840;2022-07-10T13:33:37;22.00;99.90
31309;DHT22;17936;52.446;10.840;2022-07-10T13:36:03;22.30;99.90
31309;DHT22;17936;52.446;10.840;2022-07-10T13:38:29;21.70;99.90
31309;DHT22;17936;52.446;10.840;2022-07-10T13:40:55;20.90;99.90
31309;DHT22;17936;52.446;10.840;2022-07-10T13:43:20;20.50;99.90
31309;DHT22;17936;52.446;10.840;2022-07-10T13:45:59;20.70;99.90
31309;DHT22;17936;52.446;10.840;2022-07-10T13:48:24;21.60;99.90
31309;DHT22;17936;52.446;10.840;2022-07-10T13:50:51;20.80;99.90
31309;DHT22;17936;52.446;10.840;2022-07-10T13:53:17;20.80;99.90
31309;DHT22;17936;52.446;10.840;2022-07-10T13:55:43;21.00;99.90
31309;DHT22;17936;52.446;10.840;2022-07-10T13:58:09;20.60;99.90
31309;DHT22;17936;52.446;10.840;2022-07-10T14:00:34;20.80;99.90
31309;DHT22;17936;52.446;10.840;2022-07-10T14:03:00;21.30;99.90
31309;DHT22;17936;52.446;10.840;2022-07-10T14:05:26;21.40;99.90
31309;DHT22;17936;52.446;10.840;2022-07-10T14:07:51;21.30;99.90
31309;DHT22;17936;52.446;10.840;2022-07-10T14:10:17;21.30;99.90
31309;DHT22;17936;52.446;10.840;2022-07-10T14:12:42;20.70;99.90
31309;DHT22;17936;52.446;10.840;2022-07-10T14:15:08;20.60;99.90
31309;DHT22;17936;52.446;10.840;2022-07-10T14:17:34;20.50;99.90
31309;DHT22;17936;52.446;10.840;2022-07-10T14:20:00;20.40;99.90
31309;DHT22;17936;52.446;10.840;2022-07-10T14:22:25;20.90;99.90
31309;DHT22;17936;52.446;10.840;2022-07-10T14:24:51;20.60;99.90
31309;DHT22;17936;52.446;10.840;2022-07-10T14:27:19;20.20;99.90
31309;DHT22;17936;52.446;10.840;2022-07-10T14:29:44;20.30;99.90
31309;DHT22;17936;52.446;10.840;2022-07-10T14:32:09;21.20;99.90
31309;DHT22;17936;52.446;10.840;2022-07-10T14:34:35;21.10;99.90
31309;DHT22;17936;52.446;10.840;2022-07-10T14:37:02;20.40;99.90
31309;DHT22;17936;52.446;10.840;2022-07-10T14:39:28;20.10;99.90
31309;DHT22;17936;52.446;10.840;2022-07-10T14:41:53;20.00;99.90
31309;DHT22;17936;52.446;10.840;2022-07-10T14:44:19;20.50;99.90
31309;DHT22;17936;52.446;10.840;2022-07-10T14:46:44;21.20;99.90
31309;DHT22;17936;52.446;10.840;2022-07-10T14:49:10;20.80;99.90
31309;DHT22;17936;52.446;10.840;2022-07-10T14:51:35;20.80;99.90
31309;DHT22;17936;52.446;10.840;2022-07-10T14:54:01;20.50;99.90
31309;DHT22;17936;52.446;10.840;2022-07-10T14:56:27;20.10;99.90
31309;DHT22;17936;52.446;10.840;2022-07-10T14:58:52;20.00;99.90
31309;DHT22;17936;52.446;10.840;2022-07-10T15:01:18;20.00;99.90
31309;DHT22;17936;52.446;10.840;2022-07-10T15:03:44;20.40;99.90
31309;DHT22;17936;52.446;10.840;2022-07-10T15:06:10;20.10;99.90
31309;DHT22;17936;52.446;10.840;2022-07-10T15:08:35;20.00;99.90
31309;DHT22;17936;52.446;10.840;2022-07-10T15:11:01;20.70;1.00
31309;DHT22;17936;52.446;10.840;2022-07-10T15:13:28;21.40;99.90
31309;DHT22;17936;52.446;10.840;2022-07-10T15:15:53;21.30;99.90
31309;DHT22;17936;52.446;10.840;2022-07-10T15:18:20;21.40;99.90
31309;DHT22;17936;52.446;10.840;2022-07-10T15:20:48;20.90;99.90
31309;DHT22;17936;52.446;10.840;2022-07-10T15:23:14;21.00;99.90
31309;DHT22;17936;52.446;10.840;2022-07-10T15:25:40;21.10;99.90
31309;DHT22;17936;52.446;10.840;2022-07-10T15:28:10;21.00;99.90
31309;DHT22;17936;52.446;10.840;2022-07-10T15:30:36;21.20;99.90
31309;DHT22;17936;52.446;10.840;2022-07-10T15:33:03;20.90;99.90
31309;DHT22;17936;52.446;10.840;2022-07-10T15:35:29;22.00;99.90
31309;DHT22;17936;52.446;10.840;2022-07-10T15:37:55;23.00;99.90
31309;DHT22;17936;52.446;10.840;2022-07-10T15:40:21;23.30;99.90
31309;DHT22;17936;52.446;10.840;2022-07-10T15:42:46;22.30;99.90
31309;DHT22;17936;52.446;10.840;2022-07-10T15:45:12;21.80;99.90
31309;DHT22;17936;52.446;10.840;2022-07-10T15:47:37;23.30;99.90